createdAt,value
2022-08-16T00:01:24.447Z,10.90
2022-08-16T00:03:53.750Z,11.43
2022-08-16T00:06:21.765Z,12.00
2022-08-16T00:08:49.997Z,12.53
2022-08-16T00:11:20.971Z,12.53
2022-08-16T00:13:53.451Z,12.63
2022-08-16T00:17:05.923Z,14.77
2022-08-16T00:19:15.760Z,13.80
2022-08-16T00:21:44.524Z,14.20
2022-08-16T00:24:13.449Z,15.60
2022-08-16T00:26:58.422Z,13.67
2022-08-16T00:29:25.570Z,13.83
2022-08-16T00:32:00.090Z,14.57
2022-08-16T00:34:41.906Z,14.47
2022-08-16T00:37:17.230Z,14.20
2022-08-16T00:39:56.992Z,15.37
2022-08-16T00:42:30.053Z,14.40
2022-08-16T00:45:09.768Z,13.20
2022-08-16T00:47:49.222Z,14.60
2022-08-16T00:50:36.255Z,14.00
2022-08-16T00:53:07.353Z,13.77
2022-08-16T00:55:38.291Z,14.30
2022-08-16T00:58:13.087Z,12.70
2022-08-16T01:00:45.593Z,14.67
2022-08-16T01:03:30.369Z,14.53
2022-08-16T01:05:59.376Z,14.70
2022-08-16T01:08:36.278Z,13.27
2022-08-16T01:11:05.512Z,14.10
2022-08-16T01:13:37.219Z,14.73
2022-08-16T01:16:12.930Z,14.90
2022-08-16T01:18:59.204Z,14.50
2022-08-16T01:21:52.583Z,13.93
2022-08-16T01:24:51.552Z,14.00
2022-08-16T01:27:30.966Z,14.03
2022-08-16T01:30:18.073Z,15.73
2022-08-16T01:33:01.570Z,15.07
2022-08-16T01:35:46.360Z,13.27
2022-08-16T01:38:35.558Z,16.40
2022-08-16T01:41:09.503Z,14.00
2022-08-16T01:43:40.264Z,13.60
2022-08-16T01:46:29.801Z,15.47
2022-08-16T01:49:36.004Z,15.17
2022-08-16T01:52:28.017Z,14.23
2022-08-16T01:55:05.363Z,15.90
2022-08-16T01:57:35.600Z,14.80
2022-08-16T02:00:19.565Z,15.43
2022-08-16T02:02:46.884Z,15.27
2022-08-16T02:05:21.160Z,14.37
2022-08-16T02:07:52.022Z,14.13
2022-08-16T02:10:20.862Z,15.80
2022-08-16T02:12:55.741Z,14.73
2022-08-16T02:15:28.218Z,14.07
2022-08-16T02:18:01.414Z,15.47
2022-08-16T02:20:35.143Z,15.23
2022-08-16T02:23:05.922Z,16.00
2022-08-16T02:25:52.267Z,15.50
2022-08-16T02:28:23.558Z,13.47
2022-08-16T02:30:53.288Z,14.70
2022-08-16T02:33:24.359Z,15.23
2022-08-16T02:36:15.209Z,14.70
2022-08-16T02:39:04.463Z,13.97
2022-08-16T02:41:31.470Z,15.90
2022-08-16T02:44:01.141Z,15.60
2022-08-16T02:46:30.006Z,16.30
2022-08-16T02:49:03.316Z,15.80
2022-08-16T02:51:33.820Z,15.23
2022-08-16T02:54:03.148Z,15.93
2022-08-16T02:56:32.086Z,15.47
2022-08-16T02:58:59.426Z,15.17
2022-08-16T03:01:36.630Z,17.20
2022-08-16T03:04:28.910Z,14.00
2022-08-16T03:06:57.936Z,14.87
2022-08-16T03:09:41.357Z,15.97
2022-08-16T03:12:11.752Z,15.27
2022-08-16T03:14:43.748Z,15.03
2022-08-16T03:17:11.203Z,15.40
2022-08-16T03:19:47.903Z,16.47
2022-08-16T03:22:28.403Z,15.07
2022-08-16T03:25:01.226Z,15.77
2022-08-16T03:27:32.791Z,15.30
2022-08-16T03:30:17.412Z,14.60
2022-08-16T03:32:55.799Z,15.80
2022-08-16T03:35:32.620Z,16.40
2022-08-16T03:38:33.714Z,16.63
2022-08-16T03:40:56.127Z,15.93
2022-08-16T03:43:51.543Z,18.43
2022-08-16T03:46:44.481Z,16.57
2022-08-16T03:49:03.030Z,17.53
2022-08-16T03:51:30.465Z,16.50
2022-08-16T03:54:03.455Z,18.07
2022-08-16T03:56:56.724Z,16.33
2022-08-16T03:59:29.747Z,16.43
2022-08-16T04:02:02.020Z,17.17
2022-08-16T04:04:33.430Z,15.73
2022-08-16T04:07:05.812Z,18.53
2022-08-16T04:09:38.101Z,16.53
2022-08-16T04:12:10.652Z,16.97
2022-08-16T04:14:46.773Z,16.97
2022-08-16T04:17:17.132Z,18.13
2022-08-16T04:19:45.435Z,19.20
2022-08-16T04:22:17.271Z,20.03
2022-08-16T04:24:55.327Z,17.70
2022-08-16T04:27:29.012Z,19.60
2022-08-16T04:30:03.052Z,19.30
2022-08-16T04:32:35.527Z,19.80
2022-08-16T04:35:12.368Z,18.83
2022-08-16T04:37:44.954Z,19.50
2022-08-16T04:40:20.531Z,19.97
2022-08-16T04:42:50.402Z,18.43
2022-08-16T04:45:18.643Z,19.10
2022-08-16T04:48:05.897Z,20.23
2022-08-16T04:50:43.562Z,19.50
2022-08-16T04:53:15.885Z,19.83
2022-08-16T04:55:45.251Z,18.97
2022-08-16T04:58:44.763Z,18.93
2022-08-16T05:01:01.901Z,18.27
2022-08-16T05:03:31.052Z,19.70
2022-08-16T05:05:59.724Z,18.80
2022-08-16T05:08:32.804Z,21.50
2022-08-16T05:11:16.928Z,23.43
2022-08-16T05:13:47.513Z,20.67
2022-08-16T05:16:30.115Z,20.37
2022-08-16T05:19:11.599Z,18.60
2022-08-16T05:21:47.623Z,19.20
2022-08-16T05:24:14.565Z,20.40
2022-08-16T05:26:51.911Z,20.00
2022-08-16T05:29:20.622Z,19.40
2022-08-16T05:32:01.467Z,19.80
2022-08-16T05:34:29.228Z,19.83
2022-08-16T05:36:57.463Z,17.80
2022-08-16T05:39:33.362Z,18.87
2022-08-16T05:42:04.848Z,18.30
2022-08-16T05:44:32.556Z,17.93
2022-08-16T05:47:02.051Z,17.10
2022-08-16T05:49:39.890Z,18.60
2022-08-16T05:52:13.684Z,17.23
2022-08-16T05:54:47.569Z,17.93
2022-08-16T05:57:20.657Z,17.40
2022-08-16T05:59:50.736Z,17.87
2022-08-16T06:02:33.491Z,16.83
2022-08-16T06:05:02.246Z,17.50
2022-08-16T06:07:31.919Z,17.60
2022-08-16T06:10:09.684Z,17.30
2022-08-16T06:12:37.464Z,17.87
2022-08-16T06:15:11.982Z,17.57
2022-08-16T06:17:44.327Z,17.33
2022-08-16T06:20:35.466Z,18.40
2022-08-16T06:23:20.029Z,18.80
2022-08-16T06:25:59.408Z,17.50
2022-08-16T06:28:36.443Z,18.13
2022-08-16T06:31:12.079Z,18.77
2022-08-16T06:33:42.331Z,17.30
2022-08-16T06:36:14.762Z,18.47
2022-08-16T06:38:55.450Z,18.83
2022-08-16T06:41:29.339Z,18.30
2022-08-16T06:44:21.093Z,16.50
2022-08-16T06:46:53.778Z,17.80
2022-08-16T06:49:21.180Z,15.27
2022-08-16T06:51:48.996Z,16.03
2022-08-16T06:54:21.740Z,17.27
2022-08-16T06:56:52.368Z,17.03
2022-08-16T06:59:25.539Z,16.23
2022-08-16T07:01:58.299Z,15.83
2022-08-16T07:04:31.882Z,16.50
2022-08-16T07:07:01.913Z,15.17
2022-08-16T07:09:30.605Z,16.20
2022-08-16T07:12:05.393Z,16.33
2022-08-16T07:14:35.373Z,15.70
2022-08-16T07:17:08.200Z,15.60
2022-08-16T07:20:29.320Z,16.23
2022-08-16T07:22:52.962Z,15.60
2022-08-16T07:25:24.969Z,16.10
2022-08-16T07:27:52.859Z,15.03
2022-08-16T07:30:46.003Z,13.80
2022-08-16T07:33:52.005Z,14.47
2022-08-16T07:36:07.622Z,14.70
2022-08-16T07:38:41.364Z,15.13
2022-08-16T07:41:09.632Z,15.63
2022-08-16T07:43:40.545Z,16.00
2022-08-16T07:46:39.276Z,14.20
2022-08-16T07:49:02.360Z,14.40
2022-08-16T07:51:37.022Z,15.30
2022-08-16T07:54:11.447Z,17.23
2022-08-16T07:56:48.368Z,15.77
2022-08-16T07:59:16.167Z,15.03
2022-08-16T08:01:43.643Z,13.80
2022-08-16T08:04:13.149Z,15.10
2022-08-16T08:06:42.456Z,13.40
2022-08-16T08:09:16.238Z,13.10
2022-08-16T08:12:01.068Z,14.13
2022-08-16T08:14:29.403Z,14.57
2022-08-16T08:16:59.025Z,13.20
2022-08-16T08:19:30.148Z,13.20
2022-08-16T08:22:00.705Z,12.70
2022-08-16T08:24:53.366Z,13.07
2022-08-16T08:27:26.588Z,15.20
2022-08-16T08:30:50.537Z,14.10
2022-08-16T08:32:51.167Z,14.97
2022-08-16T08:35:28.728Z,14.77
2022-08-16T08:37:58.453Z,12.77
2022-08-16T08:40:29.593Z,13.53
2022-08-16T08:43:00.442Z,11.50
2022-08-16T08:45:48.381Z,14.60
2022-08-16T08:48:35.091Z,13.33
2022-08-16T08:51:11.140Z,14.40
2022-08-16T08:53:58.021Z,15.20
2022-08-16T08:56:32.459Z,12.77
2022-08-16T08:59:26.007Z,12.50
2022-08-16T09:01:57.032Z,13.20
2022-08-16T09:04:28.558Z,12.13
2022-08-16T09:06:58.384Z,12.00
2022-08-16T09:09:33.411Z,11.50
2022-08-16T09:12:06.189Z,11.33
2022-08-16T09:14:49.347Z,12.57
2022-08-16T09:17:38.221Z,10.90
2022-08-16T09:20:07.957Z,11.20
2022-08-16T09:22:34.976Z,10.97
2022-08-16T09:25:09.919Z,12.63
2022-08-16T09:27:57.369Z,10.10
2022-08-16T09:30:33.655Z,11.33
2022-08-16T09:33:06.814Z,11.30
2022-08-16T09:35:38.674Z,10.60
2022-08-16T09:38:08.637Z,10.40
2022-08-16T09:40:43.354Z,10.70
2022-08-16T09:43:37.768Z,10.53
2022-08-16T09:46:04.015Z,11.30
2022-08-16T09:48:52.888Z,11.00
2022-08-16T09:51:26.284Z,10.60
2022-08-16T09:53:57.899Z,10.33
2022-08-16T09:56:35.338Z,10.20
2022-08-16T09:59:07.951Z,9.30
2022-08-16T10:01:43.488Z,11.00
2022-08-16T10:04:30.257Z,10.00
2022-08-16T10:09:45.274Z,9.37
2022-08-16T10:12:42.435Z,9.13
2022-08-16T10:15:16.622Z,10.00
2022-08-16T10:18:00.232Z,10.50
2022-08-16T10:20:32.491Z,8.43
2022-08-16T10:23:06.936Z,9.17
2022-08-16T10:27:21.946Z,9.33
2022-08-16T10:28:39.098Z,10.07
2022-08-16T10:31:14.498Z,9.00
2022-08-16T10:33:44.227Z,9.80
2022-08-16T10:36:39.333Z,9.60
2022-08-16T10:39:00.897Z,10.20
2022-08-16T10:41:28.945Z,9.43
2022-08-16T10:43:56.720Z,9.87
2022-08-16T10:46:33.640Z,9.53
2022-08-16T10:49:01.470Z,9.73
2022-08-16T10:51:34.483Z,11.03
2022-08-16T10:54:28.648Z,11.70
2022-08-16T10:56:57.108Z,10.60
2022-08-16T10:59:32.905Z,10.70
2022-08-16T11:02:57.559Z,10.57
2022-08-16T11:05:08.761Z,11.50
2022-08-16T11:07:51.951Z,10.27
2022-08-16T11:16:26.786Z,10.53
2022-08-16T11:19:05.307Z,9.93
2022-08-16T11:22:23.274Z,10.00
2022-08-16T11:24:39.499Z,10.80
2022-08-16T11:27:32.774Z,10.00
2022-08-16T11:29:57.037Z,9.40
2022-08-16T11:32:31.494Z,9.07
2022-08-16T11:35:13.529Z,9.97
2022-08-16T11:40:46.911Z,9.73
2022-08-16T11:43:23.743Z,10.33
2022-08-16T11:45:54.684Z,10.20
2022-08-16T11:48:25.602Z,11.17
2022-08-16T11:50:53.145Z,10.33
2022-08-16T11:53:21.902Z,9.13
2022-08-16T11:55:54.772Z,9.33
2022-08-16T11:58:24.681Z,10.03
2022-08-16T12:00:55.628Z,8.80
2022-08-16T12:03:31.428Z,9.43
2022-08-16T12:06:30.334Z,10.07
2022-08-16T12:09:02.189Z,8.20
2022-08-16T12:11:31.580Z,8.90
2022-08-16T12:14:01.985Z,8.40
2022-08-16T12:16:34.483Z,9.40
2022-08-16T12:19:10.745Z,8.93
2022-08-16T12:21:58.837Z,9.33
2022-08-16T12:24:27.142Z,8.60
2022-08-16T12:26:54.549Z,7.87
2022-08-16T12:29:22.378Z,8.23
2022-08-16T12:32:01.586Z,8.47
2022-08-16T12:34:47.977Z,9.03
2022-08-16T12:37:18.156Z,8.40
2022-08-16T12:39:50.614Z,8.73
2022-08-16T12:42:19.390Z,8.73
2022-08-16T12:44:49.056Z,8.07
2022-08-16T12:47:37.257Z,8.33
2022-08-16T12:50:10.529Z,8.70
2022-08-16T12:52:53.001Z,8.40
2022-08-16T12:55:22.117Z,7.90
2022-08-16T12:57:58.406Z,8.00
2022-08-16T13:00:33.037Z,7.53
2022-08-16T13:03:03.375Z,7.87
2022-08-16T13:08:03.792Z,8.37
2022-08-16T13:10:36.829Z,7.70
2022-08-16T13:13:07.044Z,7.80
2022-08-16T13:15:51.617Z,7.90
2022-08-16T13:18:34.057Z,7.87
2022-08-16T13:21:05.023Z,7.90
2022-08-16T13:23:33.214Z,7.43
2022-08-16T13:26:00.527Z,7.77
2022-08-16T13:28:27.644Z,6.67
2022-08-16T13:30:56.804Z,6.77
2022-08-16T13:33:36.816Z,7.10
2022-08-16T13:36:17.101Z,7.77
2022-08-16T13:38:55.640Z,7.60
2022-08-16T13:41:24.203Z,7.10
2022-08-16T13:43:57.859Z,6.77
2022-08-16T13:46:27.290Z,6.97
2022-08-16T13:48:56.031Z,6.43
2022-08-16T13:51:25.223Z,6.70
2022-08-16T13:54:02.800Z,7.60
2022-08-16T13:56:37.875Z,6.70
2022-08-16T13:59:20.543Z,6.17
2022-08-16T14:01:55.890Z,6.20
2022-08-16T14:04:39.249Z,6.88
2022-08-16T14:07:11.335Z,6.20
2022-08-16T14:09:39.431Z,6.00
2022-08-16T14:12:29.387Z,6.20
2022-08-16T14:14:57.573Z,6.60
2022-08-16T14:17:26.570Z,6.20
2022-08-16T14:19:54.585Z,7.10
2022-08-16T14:22:42.353Z,6.28
2022-08-16T14:25:18.994Z,5.93
2022-08-16T14:27:46.628Z,5.80
2022-08-16T14:30:17.701Z,5.63
2022-08-16T14:32:46.756Z,5.70
2022-08-16T14:35:36.340Z,6.15
2022-08-16T14:38:04.802Z,6.72
2022-08-16T14:40:32.896Z,5.80
2022-08-16T14:43:07.324Z,5.05
2022-08-16T14:45:34.585Z,5.13
2022-08-16T14:48:01.502Z,5.10
2022-08-16T14:50:28.692Z,5.50
2022-08-16T14:53:01.182Z,5.90
2022-08-16T14:55:33.485Z,5.82
2022-08-16T14:58:05.815Z,5.30
2022-08-16T15:00:37.427Z,5.93
2022-08-16T15:03:09.664Z,6.07
2022-08-16T15:05:39.750Z,5.70
2022-08-16T15:08:06.934Z,5.20
2022-08-16T15:10:34.984Z,5.70
2022-08-16T15:13:09.561Z,5.73
2022-08-16T15:15:38.758Z,6.15
2022-08-16T15:18:11.747Z,5.53
2022-08-16T15:20:41.087Z,5.90
2022-08-16T15:23:09.968Z,5.20
2022-08-16T15:25:44.560Z,6.10
2022-08-16T15:28:30.958Z,6.03
2022-08-16T15:31:03.954Z,6.45
2022-08-16T15:33:42.709Z,6.10
2022-08-16T15:36:17.946Z,6.87
2022-08-16T15:39:02.916Z,5.60
2022-08-16T15:41:42.609Z,5.73
2022-08-16T15:44:22.393Z,5.53
2022-08-16T15:46:55.836Z,6.00
2022-08-16T15:49:34.687Z,6.13
2022-08-16T15:52:14.337Z,5.53
2022-08-16T15:54:53.527Z,6.67
2022-08-16T15:57:24.609Z,5.90
2022-08-16T15:59:56.152Z,6.90
2022-08-16T16:02:38.790Z,6.03
2022-08-16T16:05:11.188Z,6.20
2022-08-16T16:07:56.430Z,5.93
2022-08-16T16:10:29.833Z,6.10
2022-08-16T16:13:00.503Z,6.30
2022-08-16T16:15:31.646Z,6.00
2022-08-16T16:17:59.006Z,5.80
2022-08-16T16:20:35.548Z,6.27
2022-08-16T16:23:10.352Z,5.80
2022-08-16T16:25:44.022Z,5.60
2022-08-16T16:28:45.924Z,6.00
2022-08-16T16:31:12.484Z,6.10
2022-08-16T16:33:44.384Z,6.50
2022-08-16T16:36:17.212Z,5.70
2022-08-16T16:38:48.817Z,5.17
2022-08-16T16:41:23.336Z,5.87
2022-08-16T16:43:53.453Z,5.37
2022-08-16T16:46:42.396Z,5.57
2022-08-16T16:49:14.113Z,5.93
2022-08-16T16:51:44.666Z,5.03
2022-08-16T16:54:13.308Z,5.30
2022-08-16T16:56:49.759Z,5.32
2022-08-16T16:59:19.927Z,5.00
2022-08-16T17:02:00.495Z,5.00
2022-08-16T17:04:36.809Z,4.75
2022-08-16T17:07:03.886Z,5.05
2022-08-16T17:09:40.250Z,4.82
2022-08-16T17:12:09.062Z,5.25
2022-08-16T17:14:38.460Z,4.97
2022-08-16T17:17:11.562Z,4.55
2022-08-16T17:19:42.578Z,4.32
2022-08-16T17:22:16.086Z,4.40
2022-08-16T17:24:52.667Z,5.00
2022-08-16T17:27:33.821Z,4.78
2022-08-16T17:30:14.822Z,5.07
2022-08-16T17:32:50.096Z,5.40
2022-08-16T17:35:23.040Z,4.95
2022-08-16T17:37:51.720Z,4.78
2022-08-16T17:40:47.511Z,5.23
2022-08-16T17:43:17.190Z,5.70
2022-08-16T17:45:44.217Z,5.97
2022-08-16T17:48:11.772Z,5.43
2022-08-16T17:50:40.274Z,5.73
2022-08-16T17:53:07.771Z,5.80
2022-08-16T17:55:38.612Z,6.40
2022-08-16T17:58:10.539Z,6.00
2022-08-16T18:00:52.228Z,6.70
2022-08-16T18:04:02.810Z,6.00
2022-08-16T18:06:25.464Z,6.67
2022-08-16T18:09:01.765Z,6.53
2022-08-16T18:11:30.137Z,6.50
2022-08-16T18:14:00.484Z,7.10
2022-08-16T18:16:27.658Z,6.73
2022-08-16T18:18:54.560Z,7.20
2022-08-16T18:21:40.523Z,7.23
2022-08-16T18:24:08.744Z,6.90
2022-08-16T18:26:36.111Z,7.40
2022-08-16T18:29:03.276Z,7.90
2022-08-16T18:31:30.335Z,7.97
2022-08-16T18:33:57.225Z,7.83
2022-08-16T18:36:25.536Z,8.20
2022-08-16T18:38:54.015Z,7.30
2022-08-16T18:41:24.922Z,7.47
2022-08-16T18:44:22.289Z,9.33
2022-08-16T18:46:43.712Z,8.53
2022-08-16T18:49:13.247Z,7.90
2022-08-16T18:51:45.225Z,8.50
2022-08-16T18:54:17.843Z,8.43
2022-08-16T18:56:56.372Z,7.93
2022-08-16T18:59:27.758Z,8.10
2022-08-16T19:02:00.215Z,8.53
2022-08-16T19:04:50.348Z,8.70
2022-08-16T19:07:23.190Z,9.27
2022-08-16T19:10:01.777Z,8.97
2022-08-16T19:12:47.154Z,8.97
2022-08-16T19:15:22.827Z,9.10
2022-08-16T19:17:49.943Z,10.57
2022-08-16T19:20:20.606Z,9.83
2022-08-16T19:23:05.453Z,9.40
2022-08-16T19:25:48.697Z,8.70
2022-08-16T19:28:50.994Z,8.40
2022-08-16T19:31:31.096Z,8.57
2022-08-16T19:33:58.325Z,7.83
2022-08-16T19:36:37.902Z,8.83
2022-08-16T19:39:13.685Z,8.30
2022-08-16T19:41:53.341Z,9.73
2022-08-16T19:44:22.320Z,8.87
2022-08-16T19:46:49.570Z,9.30
2022-08-16T19:49:17.064Z,9.53
2022-08-16T19:51:48.285Z,9.43
2022-08-16T19:54:15.696Z,8.70
2022-08-16T19:56:42.619Z,9.33
2022-08-16T19:59:19.357Z,10.00
2022-08-16T20:01:50.030Z,9.30
2022-08-16T20:04:17.046Z,8.80
2022-08-16T20:06:43.961Z,9.40
2022-08-16T20:09:12.624Z,9.87
2022-08-16T20:11:46.704Z,10.43
2022-08-16T20:14:23.960Z,10.50
2022-08-16T20:16:55.154Z,9.83
2022-08-16T20:19:22.068Z,10.73
2022-08-16T20:21:49.743Z,11.30
2022-08-16T20:24:33.638Z,10.50
2022-08-16T20:27:02.815Z,11.30
2022-08-16T20:29:29.723Z,9.87
2022-08-16T20:31:56.830Z,11.60
2022-08-16T20:34:23.786Z,11.87
2022-08-16T20:36:50.731Z,10.13
2022-08-16T20:39:17.690Z,11.77
2022-08-16T20:41:45.163Z,9.97
2022-08-16T20:44:12.699Z,11.77
2022-08-16T20:46:39.986Z,11.57
2022-08-16T20:49:09.068Z,10.70
2022-08-16T20:51:46.509Z,10.60
2022-08-16T20:54:14.806Z,11.37
2022-08-16T20:56:41.838Z,12.60
2022-08-16T20:59:08.737Z,11.93
2022-08-16T21:01:49.658Z,11.57
2022-08-16T21:04:25.225Z,12.53
2022-08-16T21:06:53.713Z,11.57
2022-08-16T21:09:28.745Z,12.50
2022-08-16T21:11:57.357Z,12.63
2022-08-16T21:14:24.509Z,13.10
2022-08-16T21:16:51.544Z,12.40
2022-08-16T21:19:19.100Z,12.13
2022-08-16T21:21:46.468Z,11.60
2022-08-16T21:24:14.057Z,11.70
2022-08-16T21:26:40.992Z,11.60
2022-08-16T21:29:17.935Z,13.23
2022-08-16T21:31:44.901Z,13.87
2022-08-16T21:34:11.837Z,14.10
2022-08-16T21:36:38.793Z,13.73
2022-08-16T21:39:06.399Z,12.70
2022-08-16T21:41:35.226Z,12.17
2022-08-16T21:44:02.142Z,12.33
2022-08-16T21:46:29.124Z,13.53
2022-08-16T21:48:56.043Z,12.93
2022-08-16T21:51:22.947Z,14.00
2022-08-16T21:53:49.922Z,14.37
2022-08-16T21:56:17.590Z,13.37
2022-08-16T21:58:53.297Z,14.80
2022-08-16T22:01:23.104Z,15.03
2022-08-16T22:04:35.753Z,13.27
2022-08-16T22:06:39.253Z,14.17
2022-08-16T22:09:08.224Z,14.67
2022-08-16T22:11:35.521Z,15.63
2022-08-16T22:14:04.251Z,14.97
2022-08-16T22:16:35.163Z,13.60
2022-08-16T22:19:04.449Z,13.57
2022-08-16T22:21:32.439Z,14.07
2022-08-16T22:23:59.564Z,14.93
2022-08-16T22:26:32.218Z,14.43
2022-08-16T22:29:02.184Z,14.97
2022-08-16T22:31:29.316Z,14.80
2022-08-16T22:33:56.890Z,14.00
2022-08-16T22:36:28.462Z,16.00
2022-08-16T22:39:03.439Z,15.90
2022-08-16T22:41:32.645Z,16.27
2022-08-16T22:44:02.043Z,14.30
2022-08-16T22:46:30.209Z,14.70
2022-08-16T22:48:57.530Z,14.30
2022-08-16T22:51:27.285Z,14.13
2022-08-16T22:53:55.509Z,14.10
2022-08-16T22:56:23.892Z,16.07
2022-08-16T22:58:50.925Z,14.70
2022-08-16T23:01:22.803Z,15.70
2022-08-16T23:03:50.398Z,15.10
2022-08-16T23:06:17.824Z,15.57
2022-08-16T23:08:44.947Z,15.43
2022-08-16T23:11:22.507Z,15.00
2022-08-16T23:13:56.181Z,15.20
2022-08-16T23:16:33.239Z,14.50
2022-08-16T23:19:12.363Z,14.80
2022-08-16T23:21:43.759Z,15.43
2022-08-16T23:24:11.885Z,16.63
2022-08-16T23:26:47.934Z,16.43
2022-08-16T23:29:23.996Z,14.17
2022-08-16T23:32:08.369Z,15.47
2022-08-16T23:34:35.308Z,15.50
2022-08-16T23:37:02.227Z,16.23
2022-08-16T23:39:29.444Z,15.10
2022-08-16T23:41:56.422Z,15.10
2022-08-16T23:44:42.223Z,14.93
2022-08-16T23:47:10.827Z,17.60
2022-08-16T23:49:58.038Z,17.13
2022-08-16T23:52:53.944Z,17.10
2022-08-16T23:55:11.737Z,17.00
2022-08-16T23:57:38.666Z,17.00
